Zprávy METAR z letišť v České republice

LKPR - Praha Ruzyně, Česká republika
Vzdálenost od této stanice: JV 30km
Aktualizováno: 22.06.2018 07:00
 
Teplota vzduchu: 10°C
Chlad větru: 8°C
Vítr: Z 15 km/h
Rosný bod: 5°C
Vlhkost vzduchu: 71%
Tlak vzduchu: 1019 hPa
Oblačnost: skoro jasno
Viditelnost: 10 km
Detaily oblačnosti: skoro jasno 610 m
2018/06/22 05:00 LKPR 220500Z 26008KT 9999 FEW020 10/05 Q1019 NOSIG
LKTB - Brno Tuřany, Česká republika
Vzdálenost od této stanice: VJV 234km
Aktualizováno: 22.06.2018 07:00
 
Teplota vzduchu: 13°C
Vítr: S 9 km/h
Rosný bod: 3°C
Vlhkost vzduchu: 51%
Tlak vzduchu: 1018 hPa
Stav počasí: Jasno
Oblačnost: jasná obloha
Viditelnost: více než 10 km
2018/06/22 05:00 LKTB 220500Z 35005KT 300V020 CAVOK 13/03 Q1018 NOSIG
 
LKKV - Karlovy Vary, Česká republika
Vzdálenost od této stanice: Z 72km
Aktualizováno: 22.06.2018 07:00
 
Teplota vzduchu: 7°C
Chlad větru: 4°C
Vítr: ZJZ 17 km/h
Rosný bod: 3°C
Vlhkost vzduchu: 76%
Tlak vzduchu: 1020 hPa
Oblačnost: oblačno
Viditelnost: 10 km
Detaily oblačnosti: oblačno 792 m
2018/06/22 05:00 LKKV 220500Z 25009KT 220V280 9999 SCT026 07/03 Q1020
LKMT - Ostrava Mošnov, Česká republika
Vzdálenost od této stanice: VJV 306km
Aktualizováno: 22.06.2018 07:00
 
Teplota vzduchu: 12°C
Vítr: VSV 9 km/h
Rosný bod: 7°C
Vlhkost vzduchu: 72%
Tlak vzduchu: 1018 hPa
Stav počasí: Jasno
Oblačnost: jasná obloha
Viditelnost: více než 10 km
2018/06/22 05:00 LKMT 220500Z 07005KT CAVOK 12/07 Q1018 NOSIG
 
LKPD - Pardubice, Česká republika
Vzdálenost od této stanice: VJV 132km
Aktualizováno: 22.06.2018 07:00
 
Teplota vzduchu: 12°C
Vítr: Z 11 km/h
Rosný bod: 4°C
Vlhkost vzduchu: 58%
Tlak vzduchu: 1019 hPa
Stav počasí: Jasno
Oblačnost: jasná obloha
Viditelnost: více než 10 km
2018/06/22 05:00 LKPD 220500Z 28006KT CAVOK 12/04 Q1019 NOSIG
LKKB - Praha Kbely, Česká republika
Vzdálenost od této stanice: VJV 46km
Aktualizováno: 22.06.2018 07:00
 
Teplota vzduchu: 12°C
Vítr: Z 13 km/h
Rosný bod: 5°C
Vlhkost vzduchu: 63%
Tlak vzduchu: 1019 hPa
Oblačnost: skoro jasno
Viditelnost: 10 km
Detaily oblačnosti: skoro jasno 1128 m
2018/06/22 05:00 LKKB 220500Z 28007KT 250V320 9999 FEW037 12/05 Q1019 NOSIG
 
LKCV - Čáslav, Česká republika
Vzdálenost od této stanice: VJV 110km
Aktualizováno: 22.06.2018 07:00
 
Teplota vzduchu: 11°C
Vítr: ZJZ 9 km/h
Rosný bod: 6°C
Vlhkost vzduchu: 72%
Tlak vzduchu: 1019 hPa
Oblačnost: oblačno
Viditelnost: 10 km
Detaily oblačnosti: oblačno 1250 m
2018/06/22 05:00 LKCV 220500Z 25005KT 9999 SCT041 11/06 Q1019 NOSIG
LKNA - Náměšť n. Osl., Česká republika
Vzdálenost od této stanice: JV 200km
Aktualizováno: 22.06.2018 07:00
 
Teplota vzduchu: 10°C
Chlad větru: 7°C
Vítr: SZ 19 km/h
Rosný bod: 3°C
Vlhkost vzduchu: 62%
Tlak vzduchu: 1018 hPa
Stav počasí: Jasno
Oblačnost: jasná obloha
Viditelnost: více než 10 km
2018/06/22 05:00 LKNA 220500Z 32010KT CAVOK 10/03 Q1018 NOSIG
 
LKLN - Plzeň Líně, Česká republika
Vzdálenost od této stanice: JZ 80km
Aktualizováno: 22.06.2018 07:00
 
Teplota vzduchu: 10°C
Chlad větru: 9°C
Vítr: ZJZ 7 km/h
Rosný bod: 5°C
Vlhkost vzduchu: 71%
Tlak vzduchu: 1021 hPa
Stav počasí: Jasno
Oblačnost: jasná obloha
Viditelnost: více než 10 km
2018/06/22 05:00 LKLN 220500Z AUTO 25004KT 210V290 CAVOK 10/05 Q1021
LKVO - Vodochody, Česká republika
Vzdálenost od této stanice: V 34km
Aktualizováno: 20.06.2018 16:00
Není aktuální
 
Teplota vzduchu: 28°C
Vítr: proměnlivý 4 km/h
Rosný bod: 12°C
Vlhkost vzduchu: 37%
Tlak vzduchu: 1021 hPa
Stav počasí: Jasno
Oblačnost: jasná obloha
Viditelnost: více než 10 km
2018/06/20 14:00 LKVO 201400Z VRB02KT CAVOK 28/12 Q1021

Metar display script od Saratoga-Weather.org
upravil a přeložil Miloš Jiřík